createdAt,value
2019-05-17T00:00:18.661Z,7.60
2019-05-17T00:02:43.212Z,7.13
2019-05-17T00:05:08.192Z,7.60
2019-05-17T00:07:32.790Z,7.80
2019-05-17T00:09:57.299Z,7.97
2019-05-17T00:12:21.846Z,8.17
2019-05-17T00:14:47.301Z,8.97
2019-05-17T00:17:11.976Z,8.20
2019-05-17T00:19:36.967Z,8.60
2019-05-17T00:22:01.844Z,9.10
2019-05-17T00:24:26.632Z,8.30
2019-05-17T00:26:51.251Z,8.27
2019-05-17T00:29:17.295Z,8.30
2019-05-17T00:31:41.988Z,9.07
2019-05-17T00:34:07.283Z,8.30
2019-05-17T00:36:32.026Z,8.20
2019-05-17T00:38:56.883Z,8.70
2019-05-17T00:41:21.567Z,8.17
2019-05-17T00:43:46.259Z,8.23
2019-05-17T00:46:10.808Z,7.67
2019-05-17T00:48:37.283Z,7.90
2019-05-17T00:51:02.473Z,7.30
2019-05-17T00:53:27.529Z,7.70
2019-05-17T00:55:52.058Z,7.70
2019-05-17T00:58:17.442Z,7.87
2019-05-17T01:00:43.488Z,7.93
2019-05-17T01:03:10.359Z,8.33
2019-05-17T01:05:38.395Z,8.10
2019-05-17T01:08:02.867Z,8.13
2019-05-17T01:10:27.376Z,7.90
2019-05-17T01:12:51.950Z,7.17
2019-05-17T01:15:18.033Z,7.57
2019-05-17T01:17:42.507Z,6.93
2019-05-17T01:20:07.978Z,7.63
2019-05-17T01:22:32.453Z,7.27
2019-05-17T01:24:57.051Z,7.10
2019-05-17T01:27:21.531Z,6.33
2019-05-17T01:29:46.578Z,6.83
2019-05-17T01:32:11.290Z,6.30
2019-05-17T01:34:37.568Z,6.73
2019-05-17T01:37:01.950Z,5.77
2019-05-17T01:39:27.496Z,5.83
2019-05-17T01:41:52.579Z,5.43
2019-05-17T01:44:17.161Z,5.30
2019-05-17T01:46:41.631Z,5.17
2019-05-17T01:49:06.846Z,5.30
2019-05-17T01:51:31.601Z,5.10
2019-05-17T01:53:57.343Z,4.77
2019-05-17T01:56:22.204Z,4.73
2019-05-17T01:58:47.143Z,4.90
2019-05-17T02:01:11.600Z,4.80
2019-05-17T02:03:37.548Z,4.53
2019-05-17T02:06:02.101Z,4.50
2019-05-17T02:08:26.700Z,4.10
2019-05-17T02:10:51.185Z,4.60
2019-05-17T02:13:16.481Z,5.20
2019-05-17T02:15:41.029Z,4.43
2019-05-17T02:18:06.986Z,4.17
2019-05-17T02:20:31.960Z,4.70
2019-05-17T02:22:56.566Z,4.90
2019-05-17T02:25:21.199Z,5.20
2019-05-17T02:27:45.816Z,5.50
2019-05-17T02:30:14.049Z,5.73
2019-05-17T02:32:38.539Z,6.67
2019-05-17T02:35:03.542Z,6.80
2019-05-17T02:37:28.161Z,7.37
2019-05-17T02:40:02.441Z,7.60
2019-05-17T02:42:22.292Z,7.40
2019-05-17T02:44:45.115Z,8.77
2019-05-17T02:47:09.581Z,10.20
2019-05-17T02:49:34.171Z,10.53
2019-05-17T02:51:58.662Z,12.17
2019-05-17T02:54:23.663Z,12.33
2019-05-17T02:56:48.230Z,14.50
2019-05-17T02:59:13.642Z,14.33
2019-05-17T03:01:38.262Z,14.87
2019-05-17T03:04:07.059Z,15.13
2019-05-17T03:06:32.884Z,15.47
2019-05-17T03:08:57.602Z,16.07
2019-05-17T03:11:22.836Z,16.67
2019-05-17T03:13:47.482Z,16.43
2019-05-17T03:16:14.781Z,17.50
2019-05-17T03:18:38.285Z,18.10
2019-05-17T03:21:03.984Z,17.57
2019-05-17T03:23:28.927Z,17.97
2019-05-17T03:25:53.470Z,17.87
2019-05-17T03:28:18.001Z,18.27
2019-05-17T03:30:46.982Z,16.97
2019-05-17T03:33:09.025Z,17.83
2019-05-17T03:35:37.591Z,17.67
2019-05-17T03:38:03.706Z,18.07
2019-05-17T03:40:58.422Z,17.27
2019-05-17T03:42:54.017Z,18.97
2019-05-17T03:45:18.859Z,17.57
2019-05-17T03:47:44.989Z,18.17
2019-05-17T03:50:16.607Z,17.97
2019-05-17T03:52:44.465Z,18.03
2019-05-17T03:55:07.765Z,18.10
2019-05-17T03:57:32.614Z,18.37
2019-05-17T03:59:57.370Z,18.17
2019-05-17T04:02:23.033Z,18.43
2019-05-17T04:04:47.907Z,18.60
2019-05-17T04:07:12.848Z,17.67
2019-05-17T04:09:37.934Z,17.43
2019-05-17T04:12:03.047Z,18.13
2019-05-17T04:14:27.768Z,17.80
2019-05-17T04:16:53.718Z,17.23
2019-05-17T04:19:18.303Z,17.30
2019-05-17T04:21:43.052Z,16.83
2019-05-17T04:24:12.395Z,16.97
2019-05-17T04:26:36.751Z,16.10
2019-05-17T04:29:03.617Z,16.03
2019-05-17T04:31:30.714Z,17.10
2019-05-17T04:33:53.978Z,16.77
2019-05-17T04:36:18.436Z,16.90
2019-05-17T04:38:43.739Z,16.90
2019-05-17T04:41:08.408Z,16.63
2019-05-17T04:43:33.667Z,17.83
2019-05-17T04:45:58.180Z,16.63
2019-05-17T04:48:23.405Z,16.00
2019-05-17T04:50:48.138Z,16.33
2019-05-17T04:53:13.289Z,16.03
2019-05-17T04:55:38.053Z,16.60
2019-05-17T04:58:03.920Z,15.97
2019-05-17T05:00:29.273Z,16.63
2019-05-17T05:02:53.830Z,15.87
2019-05-17T05:05:18.417Z,15.03
2019-05-17T05:07:43.844Z,15.90
2019-05-17T05:10:09.104Z,14.83
2019-05-17T05:12:33.870Z,15.50
2019-05-17T05:14:58.422Z,13.90
2019-05-17T05:17:22.885Z,13.87
2019-05-17T05:19:47.352Z,14.70
2019-05-17T05:22:13.566Z,13.97
2019-05-17T05:24:38.153Z,13.87
2019-05-17T05:27:02.870Z,15.03
2019-05-17T05:29:27.360Z,14.27
2019-05-17T05:31:51.916Z,14.93
2019-05-17T05:34:16.378Z,14.17
2019-05-17T05:36:41.911Z,13.87
2019-05-17T05:39:07.581Z,13.90
2019-05-17T05:41:32.160Z,14.57
2019-05-17T05:43:56.627Z,14.17
2019-05-17T05:46:22.381Z,14.93
2019-05-17T05:48:47.131Z,14.20
2019-05-17T05:51:13.743Z,16.17
2019-05-17T05:53:38.009Z,17.10
2019-05-17T05:56:03.495Z,17.03
2019-05-17T05:58:28.252Z,16.57
2019-05-17T06:00:53.270Z,16.60
2019-05-17T06:03:17.836Z,14.83
2019-05-17T06:05:42.662Z,14.43
2019-05-17T06:08:07.254Z,14.37
2019-05-17T06:10:32.500Z,13.47
2019-05-17T06:12:57.094Z,11.87
2019-05-17T06:15:22.152Z,12.87
2019-05-17T06:17:46.622Z,12.77
2019-05-17T06:20:11.921Z,11.53
2019-05-17T06:22:36.422Z,13.67
2019-05-17T06:25:03.780Z,13.57
2019-05-17T06:27:27.115Z,13.60
2019-05-17T06:29:51.678Z,13.67
2019-05-17T06:32:16.108Z,14.20
2019-05-17T06:34:42.227Z,13.27
2019-05-17T06:37:07.058Z,14.10
2019-05-17T06:39:32.887Z,12.40
2019-05-17T06:41:57.666Z,13.87
2019-05-17T06:44:22.150Z,13.43
2019-05-17T06:46:46.607Z,13.67
2019-05-17T06:49:11.746Z,13.70
2019-05-17T06:51:36.380Z,13.80
2019-05-17T06:54:01.811Z,14.20
2019-05-17T06:56:26.333Z,14.10
2019-05-17T06:58:50.889Z,14.93
2019-05-17T07:01:15.343Z,15.03
2019-05-17T07:03:40.056Z,14.77
2019-05-17T07:06:06.307Z,15.23
2019-05-17T07:08:30.766Z,15.07
2019-05-17T07:10:55.246Z,15.90
2019-05-17T07:13:19.956Z,14.93
2019-05-17T07:15:47.818Z,16.57
2019-05-17T07:18:10.656Z,15.70
2019-05-17T07:20:35.128Z,16.07
2019-05-17T07:23:00.522Z,15.77
2019-05-17T07:25:25.280Z,16.67
2019-05-17T07:27:50.393Z,16.43
2019-05-17T07:30:15.682Z,16.37
2019-05-17T07:32:40.821Z,16.83
2019-05-17T07:35:06.621Z,16.73
2019-05-17T07:37:31.102Z,16.83
2019-05-17T07:40:01.187Z,17.03
2019-05-17T07:42:21.764Z,17.20
2019-05-17T07:44:46.231Z,16.50
2019-05-17T07:47:10.705Z,15.47
2019-05-17T07:49:35.266Z,17.23
2019-05-17T07:52:00.693Z,16.73
2019-05-17T07:54:25.266Z,17.53
2019-05-17T07:56:50.547Z,18.07
2019-05-17T07:59:15.259Z,16.60
2019-05-17T08:01:41.239Z,17.20
2019-05-17T08:04:05.961Z,17.60
2019-05-17T08:06:30.787Z,16.63
2019-05-17T08:08:55.196Z,17.93
2019-05-17T08:11:19.797Z,17.70
2019-05-17T08:13:45.849Z,17.83
2019-05-17T08:16:10.501Z,17.63
2019-05-17T08:18:34.954Z,15.43
2019-05-17T08:20:59.828Z,15.60
2019-05-17T08:23:24.433Z,14.23
2019-05-17T08:25:53.804Z,14.63
2019-05-17T08:28:15.075Z,15.70
2019-05-17T08:30:40.951Z,13.97
2019-05-17T08:33:05.714Z,15.07
2019-05-17T08:35:30.417Z,13.90
2019-05-17T08:37:54.917Z,14.03
2019-05-17T08:40:20.132Z,15.60
2019-05-17T08:42:44.651Z,14.97
2019-05-17T08:45:09.900Z,15.13
2019-05-17T08:47:34.404Z,13.30
2019-05-17T08:50:00.423Z,13.13
2019-05-17T08:52:29.414Z,11.50
2019-05-17T08:54:55.066Z,11.33
2019-05-17T08:57:20.647Z,12.03
2019-05-17T08:59:45.216Z,11.13
2019-05-17T09:02:10.817Z,11.33
2019-05-17T09:04:35.454Z,10.63
2019-05-17T09:07:02.807Z,12.07
2019-05-17T09:09:26.279Z,13.87
2019-05-17T09:11:50.761Z,14.27
2019-05-17T09:14:15.207Z,13.90
2019-05-17T09:16:40.210Z,14.40
2019-05-17T09:19:04.867Z,13.87
2019-05-17T09:21:31.334Z,14.27
2019-05-17T09:23:55.496Z,13.43
2019-05-17T09:26:20.150Z,14.20
2019-05-17T09:28:44.610Z,14.37
2019-05-17T09:31:10.391Z,11.10
2019-05-17T09:33:34.953Z,11.70
2019-05-17T09:36:00.678Z,11.37
2019-05-17T09:38:25.520Z,11.23
2019-05-17T09:40:50.643Z,11.10
2019-05-17T09:43:16.817Z,11.00
2019-05-17T09:45:41.339Z,11.40
2019-05-17T09:48:06.054Z,10.73
2019-05-17T09:50:30.584Z,11.67
2019-05-17T09:52:55.162Z,11.37
2019-05-17T09:55:19.761Z,11.60
2019-05-17T09:57:44.265Z,12.70
2019-05-17T10:00:10.242Z,12.30
2019-05-17T10:02:34.830Z,13.33
2019-05-17T10:04:59.822Z,12.87
2019-05-17T10:07:24.506Z,13.03
2019-05-17T10:09:50.239Z,12.97
2019-05-17T10:12:14.805Z,12.87
2019-05-17T10:14:39.259Z,13.07
2019-05-17T10:17:04.584Z,12.13
2019-05-17T10:19:29.518Z,13.60
2019-05-17T10:21:54.070Z,15.90
2019-05-17T10:24:21.297Z,15.80
2019-05-17T10:26:44.833Z,12.97
2019-05-17T10:29:09.987Z,11.00
2019-05-17T10:31:34.594Z,11.43
2019-05-17T10:34:01.085Z,11.53
2019-05-17T10:36:25.224Z,12.00
2019-05-17T10:38:50.179Z,12.03
2019-05-17T10:41:14.995Z,12.33
2019-05-17T10:43:39.489Z,13.00
2019-05-17T10:46:04.077Z,11.07
2019-05-17T10:48:30.106Z,11.13
2019-05-17T10:50:54.675Z,10.33
2019-05-17T10:53:20.454Z,11.50
2019-05-17T10:55:45.044Z,12.17
2019-05-17T10:58:10.209Z,12.47
2019-05-17T11:00:34.871Z,10.30
2019-05-17T11:03:02.218Z,9.37
2019-05-17T11:05:26.635Z,10.20
2019-05-17T11:07:51.123Z,8.90
2019-05-17T11:10:16.604Z,8.77
2019-05-17T11:12:41.108Z,8.53
2019-05-17T11:15:11.810Z,8.50
2019-05-17T11:17:33.090Z,8.53
2019-05-17T11:19:57.684Z,8.53
2019-05-17T11:22:22.180Z,8.53
2019-05-17T11:24:46.706Z,8.10
2019-05-17T11:27:11.243Z,8.57
2019-05-17T11:29:35.700Z,10.37
2019-05-17T11:32:00.276Z,10.30
2019-05-17T11:34:25.655Z,10.20
2019-05-17T11:36:50.530Z,11.03
2019-05-17T11:39:15.046Z,10.10
2019-05-17T11:41:39.517Z,10.53
2019-05-17T11:44:04.043Z,10.10
2019-05-17T11:46:36.134Z,8.87
2019-05-17T11:48:54.705Z,7.10
2019-05-17T11:51:19.124Z,6.13
2019-05-17T11:53:43.692Z,6.40
2019-05-17T11:56:08.199Z,6.07
2019-05-17T11:58:32.691Z,6.70
2019-05-17T12:00:57.257Z,6.13
2019-05-17T12:03:21.794Z,7.30
2019-05-17T12:05:46.299Z,8.30
2019-05-17T12:08:11.182Z,8.37
2019-05-17T12:10:35.697Z,7.30
2019-05-17T12:13:00.175Z,6.40
2019-05-17T12:15:24.691Z,6.10
2019-05-17T12:17:49.153Z,4.77
2019-05-17T12:20:14.229Z,5.10
2019-05-17T12:22:38.771Z,5.50
2019-05-17T12:25:04.647Z,4.90
2019-05-17T12:27:29.109Z,6.00
2019-05-17T12:29:53.729Z,5.87
2019-05-17T12:32:18.181Z,6.87
2019-05-17T12:34:42.723Z,6.83
2019-05-17T12:37:07.238Z,7.07
2019-05-17T12:39:31.695Z,7.70
2019-05-17T12:41:56.313Z,6.73
2019-05-17T12:44:20.800Z,7.47
2019-05-17T12:46:45.236Z,5.60
2019-05-17T12:49:09.681Z,5.27
2019-05-17T12:51:34.209Z,4.30
2019-05-17T12:53:58.676Z,4.33
2019-05-17T12:56:23.224Z,4.37
2019-05-17T12:58:47.751Z,4.97
2019-05-17T13:01:12.260Z,4.80
2019-05-17T13:03:36.732Z,4.37
2019-05-17T13:06:01.249Z,5.13
2019-05-17T13:08:25.735Z,5.40
2019-05-17T13:10:50.176Z,5.40
2019-05-17T13:13:14.719Z,5.00
2019-05-17T13:15:39.266Z,4.90
2019-05-17T13:18:03.959Z,4.70
2019-05-17T13:20:28.491Z,4.63
2019-05-17T13:22:53.063Z,4.77
2019-05-17T13:25:17.613Z,5.07
2019-05-17T13:27:42.063Z,5.43
2019-05-17T13:30:10.529Z,5.40
2019-05-17T13:32:34.970Z,5.70
2019-05-17T13:34:59.550Z,6.10
2019-05-17T13:37:24.085Z,5.93
2019-05-17T13:39:48.688Z,5.60
2019-05-17T13:42:13.253Z,5.80
2019-05-17T13:44:37.762Z,6.27
2019-05-17T13:47:02.408Z,5.90
2019-05-17T13:49:26.954Z,6.27
2019-05-17T13:51:51.424Z,5.73
2019-05-17T13:54:15.914Z,6.17
2019-05-17T13:56:40.437Z,5.87
2019-05-17T13:59:05.054Z,5.47
2019-05-17T14:01:29.513Z,5.73
2019-05-17T14:03:54.033Z,5.83
2019-05-17T14:06:18.448Z,6.13
2019-05-17T14:08:43.099Z,5.40
2019-05-17T14:11:07.563Z,5.67
2019-05-17T14:13:32.084Z,6.07
2019-05-17T14:15:56.634Z,6.00
2019-05-17T14:18:21.073Z,6.77
2019-05-17T14:20:45.676Z,6.20
2019-05-17T14:23:10.203Z,6.77
2019-05-17T14:25:34.739Z,6.33
2019-05-17T14:27:59.264Z,7.07
2019-05-17T14:30:24.073Z,6.77
2019-05-17T14:32:48.593Z,6.50
2019-05-17T14:35:14.803Z,6.97
2019-05-17T14:37:39.329Z,6.23
2019-05-17T14:40:05.666Z,7.43
2019-05-17T14:42:30.119Z,7.77
2019-05-17T14:44:54.748Z,7.73
2019-05-17T14:47:19.238Z,7.13
2019-05-17T14:49:43.809Z,6.93
2019-05-17T14:52:08.317Z,5.77
2019-05-17T14:54:32.838Z,6.63
2019-05-17T14:56:57.302Z,7.40
2019-05-17T14:59:21.769Z,7.10
2019-05-17T15:01:46.333Z,7.40
2019-05-17T15:04:10.770Z,6.60
2019-05-17T15:06:35.294Z,7.70
2019-05-17T15:08:59.758Z,7.50
2019-05-17T15:11:24.379Z,7.53
2019-05-17T15:13:48.839Z,7.03
2019-05-17T15:16:13.376Z,7.07
2019-05-17T15:18:37.806Z,6.93
2019-05-17T15:21:02.417Z,6.80
2019-05-17T15:23:26.844Z,6.40
2019-05-17T15:25:51.302Z,7.30
2019-05-17T15:28:15.810Z,6.60
2019-05-17T15:30:40.264Z,6.03
2019-05-17T15:33:04.779Z,6.80
2019-05-17T15:35:29.280Z,6.40
2019-05-17T15:37:53.750Z,7.40
2019-05-17T15:40:18.361Z,7.10
2019-05-17T15:42:44.504Z,6.87
2019-05-17T15:45:09.775Z,7.83
2019-05-17T15:47:34.561Z,7.97
2019-05-17T15:49:58.980Z,6.60
2019-05-17T15:52:23.618Z,6.57
2019-05-17T15:54:48.784Z,7.73
2019-05-17T15:57:13.331Z,7.43
2019-05-17T15:59:37.839Z,7.13
2019-05-17T16:02:02.364Z,6.00
2019-05-17T16:04:26.784Z,6.80
2019-05-17T16:06:51.335Z,7.60
2019-05-17T16:09:15.844Z,7.00
2019-05-17T16:11:40.389Z,10.50
2019-05-17T16:14:04.959Z,11.13
2019-05-17T16:16:29.469Z,10.50
2019-05-17T16:18:53.914Z,7.27
2019-05-17T16:21:18.381Z,7.07
2019-05-17T16:23:42.952Z,6.67
2019-05-17T16:26:07.408Z,7.47
2019-05-17T16:28:31.883Z,7.10
2019-05-17T16:30:56.406Z,7.90
2019-05-17T16:33:20.862Z,7.10
2019-05-17T16:35:45.442Z,7.43
2019-05-17T16:38:09.906Z,8.73
2019-05-17T16:40:34.447Z,7.77
2019-05-17T16:42:58.977Z,10.13
2019-05-17T16:45:23.485Z,10.60
2019-05-17T16:47:48.098Z,8.17
2019-05-17T16:50:12.680Z,8.07
2019-05-17T16:52:37.148Z,8.27
2019-05-17T16:55:01.798Z,14.67
2019-05-17T16:57:26.344Z,8.80
2019-05-17T16:59:50.847Z,8.00
2019-05-17T17:02:15.396Z,7.03
2019-05-17T17:04:39.847Z,6.67
2019-05-17T17:07:04.506Z,8.10
2019-05-17T17:09:32.536Z,6.80
2019-05-17T17:11:58.684Z,7.13
2019-05-17T17:14:24.675Z,7.50
2019-05-17T17:16:49.220Z,6.50
2019-05-17T17:19:13.801Z,6.20
2019-05-17T17:21:38.322Z,7.10
2019-05-17T17:24:02.854Z,7.40
2019-05-17T17:26:27.355Z,6.77
2019-05-17T17:28:51.955Z,6.33
2019-05-17T17:31:17.567Z,6.23
2019-05-17T17:33:42.102Z,5.73
2019-05-17T17:36:06.616Z,6.10
2019-05-17T17:38:31.150Z,6.03
2019-05-17T17:40:55.591Z,5.80
2019-05-17T17:43:20.170Z,5.60
2019-05-17T17:45:44.750Z,5.07
2019-05-17T17:48:09.230Z,5.67
2019-05-17T17:50:33.690Z,5.10
2019-05-17T17:52:58.260Z,5.57
2019-05-17T17:55:22.736Z,5.20
2019-05-17T17:57:47.332Z,5.20
2019-05-17T18:00:13.267Z,5.77
2019-05-17T18:02:37.718Z,5.80
2019-05-17T18:05:02.510Z,5.23
2019-05-17T18:07:26.984Z,5.43
2019-05-17T18:09:51.512Z,5.33
2019-05-17T18:12:16.083Z,5.43
2019-05-17T18:14:40.622Z,5.67
2019-05-17T18:17:05.139Z,5.17
2019-05-17T18:19:29.793Z,5.03
2019-05-17T18:21:54.355Z,5.10
2019-05-17T18:24:19.619Z,5.40
2019-05-17T18:26:44.066Z,5.23
2019-05-17T18:29:08.599Z,5.50
2019-05-17T18:31:33.226Z,5.53
2019-05-17T18:33:57.693Z,4.87
2019-05-17T18:36:22.326Z,4.93
2019-05-17T18:38:49.846Z,5.17
2019-05-17T18:41:14.323Z,5.20
2019-05-17T18:43:38.936Z,5.10
2019-05-17T18:46:03.576Z,5.27
2019-05-17T18:48:28.168Z,4.97
2019-05-17T18:50:52.705Z,5.23
2019-05-17T18:53:17.471Z,5.60
2019-05-17T18:55:42.127Z,5.67
2019-05-17T18:58:06.714Z,5.27
2019-05-17T19:00:31.191Z,5.60
2019-05-17T19:02:55.632Z,5.63
2019-05-17T19:05:20.298Z,5.33
2019-05-17T19:07:44.898Z,5.67
2019-05-17T19:10:09.829Z,5.33
2019-05-17T19:12:34.348Z,5.57
2019-05-17T19:15:00.744Z,5.80
2019-05-17T19:17:25.090Z,5.70
2019-05-17T19:19:49.571Z,5.73
2019-05-17T19:22:14.092Z,6.17
2019-05-17T19:24:38.590Z,6.07
2019-05-17T19:27:03.020Z,6.30
2019-05-17T19:29:27.471Z,6.60
2019-05-17T19:31:52.021Z,6.50
2019-05-17T19:34:16.610Z,6.23
2019-05-17T19:36:41.746Z,6.37
2019-05-17T19:39:06.791Z,6.27
2019-05-17T19:41:31.280Z,6.80
2019-05-17T19:43:55.795Z,6.57
2019-05-17T19:46:20.309Z,7.03
2019-05-17T19:48:44.777Z,6.37
2019-05-17T19:51:09.265Z,6.73
2019-05-17T19:53:33.777Z,6.60
2019-05-17T19:55:58.323Z,6.97
2019-05-17T19:58:22.862Z,6.53
2019-05-17T20:00:47.420Z,7.10
2019-05-17T20:03:12.325Z,6.93
2019-05-17T20:05:36.946Z,7.03
2019-05-17T20:08:01.392Z,6.87
2019-05-17T20:10:25.993Z,7.50
2019-05-17T20:12:50.472Z,7.43
2019-05-17T20:15:17.910Z,7.03
2019-05-17T20:17:41.604Z,7.83
2019-05-17T20:20:07.775Z,7.63
2019-05-17T20:22:32.315Z,7.33
2019-05-17T20:24:56.763Z,7.67
2019-05-17T20:27:21.246Z,7.73
2019-05-17T20:29:45.683Z,7.73
2019-05-17T20:32:10.206Z,8.40
2019-05-17T20:34:34.666Z,7.57
2019-05-17T20:36:59.140Z,8.07
2019-05-17T20:39:23.616Z,8.10
2019-05-17T20:41:48.215Z,8.10
2019-05-17T20:44:12.653Z,8.37
2019-05-17T20:46:37.210Z,8.57
2019-05-17T20:49:01.721Z,7.90
2019-05-17T20:51:26.325Z,8.47
2019-05-17T20:53:50.781Z,7.30
2019-05-17T20:56:15.359Z,7.90
2019-05-17T20:58:39.803Z,8.07
2019-05-17T21:01:04.339Z,8.97
2019-05-17T21:03:28.783Z,8.07
2019-05-17T21:05:53.285Z,8.20
2019-05-17T21:08:17.726Z,8.43
2019-05-17T21:10:42.230Z,8.20
2019-05-17T21:13:06.681Z,8.83
2019-05-17T21:15:31.122Z,8.63
2019-05-17T21:17:55.609Z,8.60
2019-05-17T21:20:20.204Z,8.70
2019-05-17T21:22:44.825Z,8.20
2019-05-17T21:25:09.612Z,9.07
2019-05-17T21:27:34.131Z,8.53
2019-05-17T21:29:58.554Z,8.97
2019-05-17T21:32:23.145Z,8.33
2019-05-17T21:34:47.647Z,8.87
2019-05-17T21:37:12.135Z,9.47
2019-05-17T21:39:36.585Z,10.10
2019-05-17T21:42:01.130Z,9.50
2019-05-17T21:44:25.640Z,10.80
2019-05-17T21:47:03.620Z,9.80
2019-05-17T21:49:16.257Z,10.13
2019-05-17T21:51:40.733Z,10.33
2019-05-17T21:54:05.286Z,10.10
2019-05-17T21:56:29.760Z,9.77
2019-05-17T21:58:54.228Z,10.63
2019-05-17T22:01:21.643Z,10.10
2019-05-17T22:03:46.237Z,10.57
2019-05-17T22:06:10.768Z,10.90
2019-05-17T22:08:35.436Z,10.23
2019-05-17T22:10:59.883Z,10.07
2019-05-17T22:13:24.469Z,9.93
2019-05-17T22:15:48.997Z,9.73
2019-05-17T22:18:13.568Z,9.90
2019-05-17T22:20:38.021Z,10.30
2019-05-17T22:23:02.541Z,9.90
2019-05-17T22:25:26.962Z,10.93
2019-05-17T22:27:51.457Z,10.40
2019-05-17T22:30:16.042Z,10.30
2019-05-17T22:32:40.569Z,10.50
2019-05-17T22:35:06.263Z,10.27
2019-05-17T22:37:30.762Z,11.23
2019-05-17T22:39:55.230Z,10.93
2019-05-17T22:42:19.720Z,10.87
2019-05-17T22:44:44.162Z,9.73
2019-05-17T22:47:08.706Z,10.70
2019-05-17T22:49:33.274Z,11.13
2019-05-17T22:51:57.828Z,10.97
2019-05-17T22:54:22.253Z,10.50
2019-05-17T22:56:47.849Z,10.47
2019-05-17T22:59:12.401Z,11.53
2019-05-17T23:01:36.920Z,10.90
2019-05-17T23:04:01.459Z,10.47
2019-05-17T23:06:25.905Z,11.10
2019-05-17T23:08:50.389Z,11.30
2019-05-17T23:11:14.952Z,12.23
2019-05-17T23:13:39.437Z,11.57
2019-05-17T23:16:05.602Z,11.93
2019-05-17T23:18:31.712Z,13.00
2019-05-17T23:20:56.295Z,11.90
2019-05-17T23:23:20.895Z,13.07
2019-05-17T23:25:45.349Z,13.63
2019-05-17T23:28:09.823Z,14.00
2019-05-17T23:30:34.350Z,14.23
2019-05-17T23:32:58.818Z,14.10
2019-05-17T23:35:23.308Z,14.07
2019-05-17T23:37:47.860Z,14.57
2019-05-17T23:40:12.550Z,14.57
2019-05-17T23:42:37.147Z,14.43
2019-05-17T23:45:01.697Z,14.77
2019-05-17T23:47:26.236Z,14.10
2019-05-17T23:49:50.765Z,15.00
2019-05-17T23:52:15.251Z,13.83
2019-05-17T23:54:40.300Z,14.00
2019-05-17T23:57:04.960Z,14.97
2019-05-17T23:59:30.040Z,14.50
